CYULCYRQ

Guest
Details From CYUL - Montreal Pierre E Trudeau Intl
To CYRQ - TROIS RIVIERES
Flight Number -
Tags generated
Created
Modified
Stats Distance 69 nm / 128 km
Max Altitude 9,200 ft / 2,804 m
Waypoints 3
Social Downloads 0
Likes 0
Share VATSIM

Download

Looking for another format? Having issues loading an existing format? Contact us
Advertisement - Login to hide

Notes

Basic altitude profile: - Ascent Rate: 2500ft/min - Ascent Speed: 250kts - Cruise Altitude: 25000ft - Cruise Speed: 380kts - Descent Rate: 1500ft/min - Descent Speed: 250kts Options: - Use NATs: yes - Use PACOTS: yes - Use low airways: yes - Use high airways: yes

Route

CYUL VEPSU CYRQ

ID Type Via Altitude Latitude Longitude Leg Dist Tot Dist Heading (true) Name
O CYUL APT - 0 ft / 0 m 45.46727˚ -73.74403˚ - 0 nm - Montreal Pierre E Trudeau Intl
VEPSU FIX - 9,200 ft / 2,804 m 45.79500˚ -73.33000˚ 26 nm 26 nm 41° / 42° -
O CYRQ APT - 0 ft / 0 m 46.35274˚ -72.67944˚ 43 nm 69 nm 39° / 39° TROIS RIVIERES

Altitude Profile

Advertisement - Login to hide

CYUL

Details ICAO CYUL (YUL)
Name Montreal Pierre E Trudeau Intl
Region Canada
Timezone America/Montreal (UTC-4.0)
Stats Elevation 117 ft / 36 m (AMSL)
Location 45.467269° -73.744028°
Runways 3
Magnetic Variation 14.293° W

METAR

CYUL 220600Z 23007KT 15SM BKN240 15/06 A3011 RMK CI7 SLP198

Decode

TAF

TAF CYUL 220538Z 2206/2306 22005KT P6SM BKN240 FM221600 23010KT P6SM OVC100 FM222000 15008KT P6SM -RA SCT015 OVC040 FM222300 08007KT 6SM -RA BR BKN008 OVC015 FM230300 VRB03KT 4SM BR BKN006 RMK NXT FCST BY 220900Z

Decode

Departure Runways

ID Width Length Bearing (true) Bearing (mag) Surface Threshold Offset Overrun Length
06L 200 ft / 61 m 11,020 ft / 3,359 m 42.62° 56.91° Asphalt 0 ft / 0 m 0 ft / 0 m
06R 200 ft / 61 m 9,706 ft / 2,958 m 41.23° 55.52° Asphalt 0 ft / 0 m 0 ft / 0 m
10 200 ft / 61 m 6,831 ft / 2,082 m 87.45° 101.74° Asphalt 0 ft / 0 m 0 ft / 0 m
24L 200 ft / 61 m 9,706 ft / 2,958 m 221.25° 235.54° Asphalt 0 ft / 0 m 0 ft / 0 m
24R 200 ft / 61 m 11,020 ft / 3,359 m 222.64° 236.93° Asphalt 0 ft / 0 m 0 ft / 0 m
28 200 ft / 61 m 6,831 ft / 2,082 m 267.47° 281.76° Asphalt 0 ft / 0 m 0 ft / 0 m

CYRQ

Details ICAO CYRQ (YRQ)
Name TROIS RIVIERES
Region Canada
Timezone America/Montreal (UTC-4.0)
Stats Elevation 199 ft / 61 m (AMSL)
Location 46.352741° -72.679441°
Runways 1
Magnetic Variation 15.086° W

METAR

CYRQ 220600Z AUTO 00000KT 9SM CLR 07/05 A3010 RMK SLP194

Decode

TAF

TAF CYRQ 220138Z 2202/2214 VRB03KT P6SM FEW100 SCT240 BECMG 2212/2214 21010KT SCT180 BKN240 RMK FCST BASED ON AUTO OBS. NXT FCST BY 220800Z

Decode

Destination Runways

ID Width Length Bearing (true) Bearing (mag) Surface Threshold Offset Overrun Length
05 150 ft / 46 m 6,001 ft / 1,829 m 31.33° 46.42° Asphalt 0 ft / 0 m 300 ft / 91 m
23 150 ft / 46 m 6,001 ft / 1,829 m 211.34° 226.43° Asphalt 0 ft / 0 m 300 ft / 91 m

Popular Alternatives